Denver, Colorado
Traffic Map
Current Weather Conditions
Denver, Colorado
Broken Clouds
Broken Clouds
48°
Feels Like: 45°
Wind Chill: 45° Ceiling: 22000
Heat Index: 48° Visibility: 10mi
Dew Point: 36° Wind: 8mph
Humidity: 63% Direction: 170° (S)
Pressure: 29.93in Gusts: 0mph
Raw Report DataKBKF 011358Z 17007KT 10SM FEW080 SCT110 BKN220 09/02 A2993 RMK AO2A SLP091 T00910023
Traffic Incident Summary
Active as of:
Severity:
Category:
InformationThere was an issue retrieving the traffic information for this location. Please try a different location or try again shortly.
Advertisements
Track Severe Weather on mobile